Time;durP1;ratioP1;P1;durP2;ratioP2;P2;SDS_P1;SDS_P2;PMS_P1;PMS_P2;Temp;Humidity;BMP_temperature;BMP_pressure;BME280_temperature;BME280_humidity;BME280_pressure;Samples;Min_cycle;Max_cycle;Signal;HPM_P1;HPM_P2
2024/03/27 00:02:13;;;;;;;10.10;5.10;;;;;;;8.53;100.00;98845.66;4987638;57;1134364;-78
2024/03/27 00:07:19;;;;;;;10.47;5.77;;;;;;;8.47;100.00;98847.55;4967856;58;1137219;-78
2024/03/27 00:12:24;;;;;;;7.87;5.00;;;;;;;8.45;100.00;98844.22;4967727;58;1136598;-77
2024/03/27 00:17:30;;;;;;;12.20;6.87;;;;;;;8.40;100.00;98839.90;4987344;58;1134375;-78
2024/03/27 00:22:36;;;;;;;12.47;7.33;;;;;;;8.39;100.00;98843.51;4998384;57;1136465;-77
2024/03/27 00:27:42;;;;;;;13.32;6.45;;;;;;;8.38;100.00;98841.84;5049676;57;1136713;-78
2024/03/27 00:32:48;;;;;;;13.80;6.97;;;;;;;8.33;100.00;98834.86;5069453;57;1136695;-77
2024/03/27 00:37:54;;;;;;;10.30;5.60;;;;;;;8.31;100.00;98834.97;5003565;57;1137090;-77
2024/03/27 00:43:00;;;;;;;11.87;5.80;;;;;;;8.26;100.00;98822.72;4967078;58;1136744;-78
2024/03/27 00:48:06;;;;;;;8.80;5.63;;;;;;;8.25;100.00;98825.00;4967760;58;1136378;-77
2024/03/27 00:53:12;;;;;;;10.43;6.23;;;;;;;8.21;100.00;98816.25;4987023;58;1134660;-77
2024/03/27 00:58:19;;;;;;;9.45;4.95;;;;;;;8.19;100.00;98815.55;4967748;58;1136504;-77
2024/03/27 01:03:26;;;;;;;13.75;5.45;;;;;;;8.17;100.00;98806.48;4967881;58;1134649;-77
2024/03/27 01:08:32;;;;;;;10.97;5.87;;;;;;;8.17;100.00;98803.02;4987163;58;1136709;-77
2024/03/27 01:13:38;;;;;;;10.60;5.93;;;;;;;8.15;100.00;98800.53;4967660;58;1136514;-78
2024/03/27 01:18:43;;;;;;;11.63;5.53;;;;;;;8.14;100.00;98800.19;4956009;58;1136642;-77
2024/03/27 01:23:49;;;;;;;14.10;5.87;;;;;;;8.12;100.00;98788.97;4903339;59;1136775;-78
2024/03/27 01:28:55;;;;;;;12.57;6.33;;;;;;;8.08;100.00;98775.77;4884385;59;1136640;-77
2024/03/27 01:34:00;;;;;;;18.23;5.77;;;;;;;8.07;100.00;98769.67;4883754;59;1136628;-78
2024/03/27 01:39:06;;;;;;;11.78;4.87;;;;;;;8.06;100.00;98761.44;4905555;58;1136636;-77
2024/03/27 01:44:20;;;;;;;11.95;5.12;;;;;;;8.05;100.00;98754.99;4957894;57;1136566;-77
2024/03/27 01:49:26;;;;;;;13.62;6.03;;;;;;;8.01;100.00;98753.62;4939624;58;1136710;-78
2024/03/27 01:54:33;;;;;;;14.10;6.00;;;;;;;8.00;100.00;98746.70;5003084;57;1136810;-78
2024/03/27 01:59:38;;;;;;;8.10;5.50;;;;;;;8.00;100.00;98741.43;5038466;57;1136481;-78
2024/03/27 02:04:45;;;;;;;12.17;5.73;;;;;;;7.96;100.00;98731.67;5018973;57;1134719;-78
2024/03/27 02:09:50;;;;;;;8.33;5.53;;;;;;;7.97;100.00;98733.82;5018709;57;1136467;-77
2024/03/27 02:14:57;;;;;;;9.90;5.65;;;;;;;7.97;100.00;98735.97;5028174;57;1134674;-78
2024/03/27 02:20:06;;;;;;;8.40;5.60;;;;;;;7.96;100.00;98725.09;5010301;56;1134722;-77
2024/03/27 02:25:29;;;;;;;13.97;6.40;;;;;;;7.95;100.00;98721.28;4935570;56;1134564;-78
2024/03/27 02:30:35;;;;;;;14.87;6.60;;;;;;;7.92;100.00;98713.22;4938500;57;1136661;-77
2024/03/27 02:35:41;;;;;;;9.37;5.83;;;;;;;7.89;100.00;98701.66;4957999;57;1136537;-78
2024/03/27 02:40:46;;;;;;;11.07;5.47;;;;;;;7.78;100.00;98695.77;4950323;56;1134623;-78
2024/03/27 02:45:52;;;;;;;10.90;6.00;;;;;;;7.78;100.00;98695.77;5020484;57;1136593;-78
2024/03/27 02:50:58;;;;;;;9.50;5.33;;;;;;;7.81;100.00;98691.02;5058031;57;1138560;-77
2024/03/27 02:56:04;;;;;;;10.00;5.77;;;;;;;7.81;100.00;98693.66;5079266;57;1136654;-77
2024/03/27 03:01:11;;;;;;;12.13;5.95;;;;;;;7.78;100.00;98697.92;5051407;57;1138900;-77
2024/03/27 03:06:16;;;;;;;9.10;5.73;;;;;;;7.71;100.00;98690.25;5061385;57;1136640;-78
2024/03/27 03:11:22;;;;;;;11.20;5.80;;;;;;;7.64;100.00;98697.05;5072927;57;1134635;-77
2024/03/27 03:16:28;;;;;;;11.15;7.30;;;;;;;7.61;100.00;98689.47;5058886;57;1136313;-77
2024/03/27 03:21:34;;;;;;;9.07;5.37;;;;;;;7.51;100.00;98683.40;5001947;57;1136358;-77
2024/03/27 03:26:40;;;;;;;9.20;5.83;;;;;;;7.46;100.00;98685.66;4996249;58;1134280;-77
2024/03/27 03:31:46;;;;;;;10.83;5.90;;;;;;;7.47;100.00;98680.25;4976573;58;1136556;-78
2024/03/27 03:36:52;;;;;;;11.43;6.00;;;;;;;7.45;100.00;98676.11;4975837;58;1138699;-78
2024/03/27 03:41:58;;;;;;;13.07;6.43;;;;;;;7.39;100.00;98666.49;4976166;58;1136779;-78
2024/03/27 03:47:03;;;;;;;9.80;5.77;;;;;;;7.36;100.00;98668.58;5059440;57;1136609;-78
2024/03/27 03:52:09;;;;;;;10.00;5.70;;;;;;;7.29;100.00;98660.94;5058700;57;1134624;-78
2024/03/27 03:57:15;;;;;;;11.23;5.40;;;;;;;7.23;100.00;98663.64;5058778;57;1145683;-77
2024/03/27 04:02:21;;;;;;;9.53;4.70;;;;;;;7.20;100.00;98656.52;5078212;57;1136485;-77
2024/03/27 04:07:26;;;;;;;9.08;5.30;;;;;;;7.22;100.00;98665.09;5051017;57;1136769;-77
2024/03/27 04:12:32;;;;;;;8.83;5.47;;;;;;;7.17;100.00;98660.28;4884272;58;1134776;-78
2024/03/27 04:17:38;;;;;;;7.73;5.07;;;;;;;7.11;100.00;98650.33;5078647;57;1134182;-77
2024/03/27 04:22:44;;;;;;;7.47;5.33;;;;;;;7.09;100.00;98644.38;4813388;59;1134552;-78
2024/03/27 04:27:49;;;;;;;10.47;5.50;;;;;;;7.01;100.00;98641.66;4976377;58;1134407;-78
2024/03/27 04:32:55;;;;;;;11.80;5.03;;;;;;;6.97;100.00;98641.59;4995322;58;1136706;-77
2024/03/27 04:38:01;;;;;;;10.00;5.47;;;;;;;6.98;100.00;98630.94;4975979;58;1138594;-78
2024/03/27 04:43:07;;;;;;;8.43;5.60;;;;;;;6.97;100.00;98617.45;4976290;58;1138769;-78
2024/03/27 04:48:12;;;;;;;10.17;5.93;;;;;;;6.94;100.00;98612.47;4976580;58;1134386;-79
2024/03/27 04:53:18;;;;;;;9.45;5.28;;;;;;;6.90;100.00;98608.46;5020114;57;1136825;-78
2024/03/27 04:58:24;;;;;;;11.43;5.00;;;;;;;6.88;100.00;98610.40;5058985;57;1134579;-78
2024/03/27 05:03:29;;;;;;;19.75;8.73;;;;;;;6.82;100.00;98604.42;5037471;57;1136378;-78
2024/03/27 05:08:36;;;;;;;14.07;6.73;;;;;;;6.81;100.00;98597.98;5058187;57;1136470;-80
2024/03/27 05:13:41;;;;;;;9.07;5.30;;;;;;;6.85;100.00;98594.11;4879634;58;1138481;-79
2024/03/27 05:18:47;;;;;;;13.60;6.30;;;;;;;6.90;100.00;98583.50;5020501;57;1136438;-79
2024/03/27 05:23:53;;;;;;;8.67;5.23;;;;;;;6.91;100.00;98573.81;5007087;56;1136648;-79
2024/03/27 05:28:58;;;;;;;8.37;4.60;;;;;;;6.95;100.00;98566.83;5027451;57;1134371;-79
2024/03/27 05:34:04;;;;;;;9.67;4.60;;;;;;;6.97;100.00;98562.74;5004583;57;1134354;-79
2024/03/27 05:39:10;;;;;;;7.43;4.80;;;;;;;6.99;100.00;98558.17;5029707;57;1134084;-79
2024/03/27 05:44:16;;;;;;;6.80;4.60;;;;;;;7.03;100.00;98560.34;5015930;57;1134634;-77
2024/03/27 05:49:23;;;;;;;6.55;4.50;;;;;;;7.11;100.00;98546.98;5014239;57;1134733;-78
2024/03/27 05:54:28;;;;;;;6.03;4.72;;;;;;;7.19;100.00;98543.95;5019416;57;1135032;-78
2024/03/27 05:59:34;;;;;;;8.40;4.33;;;;;;;7.27;100.00;98549.81;4986382;57;1134670;-77
2024/03/27 06:04:40;;;;;;;8.03;4.77;;;;;;;7.33;100.00;98550.04;4986403;57;1134451;-78
2024/03/27 06:09:45;;;;;;;7.80;4.12;;;;;;;7.45;100.00;98551.17;5040216;57;1134354;-78
2024/03/27 06:14:51;;;;;;;8.10;4.80;;;;;;;7.51;100.00;98546.13;4976062;57;1134223;-78
2024/03/27 06:19:56;;;;;;;8.53;4.13;;;;;;;7.57;100.00;98539.47;4976399;57;1134485;-80
2024/03/27 06:25:05;;;;;;;9.63;4.70;;;;;;;7.68;100.00;98543.19;5021170;57;1134642;-78
2024/03/27 06:30:12;;;;;;;7.07;4.33;;;;;;;7.81;100.00;98542.33;5077119;57;1134468;-76
2024/03/27 06:35:21;;;;;;;7.30;4.70;;;;;;;8.03;100.00;98537.12;4981670;57;1134617;-79
2024/03/27 06:40:25;;;;;;;6.37;4.80;;;;;;;8.25;100.00;98544.53;5028584;57;1134690;-77
2024/03/27 06:45:30;;;;;;;8.35;4.58;;;;;;;8.48;100.00;98546.23;5003587;57;1134934;-77
2024/03/27 06:50:36;;;;;;;8.83;4.45;;;;;;;8.63;100.00;98534.64;5028635;57;1134477;-78
2024/03/27 06:55:42;;;;;;;9.83;5.10;;;;;;;8.76;100.00;98541.63;4989101;57;1134498;-78
2024/03/27 07:00:47;;;;;;;6.53;4.43;;;;;;;8.90;100.00;98536.27;5038353;57;1134498;-81
2024/03/27 07:05:53;;;;;;;10.10;5.50;;;;;;;9.06;100.00;98529.77;4983065;56;1134336;-77
2024/03/27 07:11:05;;;;;;;10.03;4.90;;;;;;;9.25;100.00;98534.80;4976894;57;1136605;-77
2024/03/27 07:16:11;;;;;;;9.45;4.87;;;;;;;9.46;100.00;98536.53;5022801;57;1136724;-78
2024/03/27 07:21:16;;;;;;;10.13;5.03;;;;;;;9.66;100.00;98530.45;5007549;57;1136560;-78
2024/03/27 07:26:22;;;;;;;7.60;4.45;;;;;;;9.85;100.00;98530.17;4986992;57;1138704;-78
2024/03/27 07:31:28;;;;;;;7.30;4.37;;;;;;;10.02;100.00;98529.70;5051314;57;1136669;-79
2024/03/27 07:36:34;;;;;;;9.83;5.00;;;;;;;10.19;99.93;98518.67;5064832;57;1138991;-78
2024/03/27 07:41:40;;;;;;;12.17;5.07;;;;;;;10.45;100.00;98525.09;4993413;57;1136772;-77
2024/03/27 07:46:46;;;;;;;6.73;4.10;;;;;;;10.81;98.34;98507.86;5004292;57;1140866;-77
2024/03/27 07:51:51;;;;;;;11.53;4.60;;;;;;;11.12;93.55;98504.45;5056853;57;1136893;-79
2024/03/27 07:57:10;;;;;;;8.90;4.13;;;;;;;11.31;92.18;98502.69;4979331;57;1138931;-77
2024/03/27 08:02:16;;;;;;;6.10;4.30;;;;;;;11.49;91.38;98493.17;4978459;57;1136391;-78
2024/03/27 08:07:21;;;;;;;6.65;3.65;;;;;;;11.61;88.31;98493.91;4904678;58;1136849;-78
2024/03/27 08:12:27;;;;;;;9.70;3.67;;;;;;;11.75;92.78;98487.57;4996059;57;1136450;-77
2024/03/27 08:17:34;;;;;;;6.03;3.80;;;;;;;11.90;88.42;98496.43;4976735;57;1136953;-78
2024/03/27 08:22:40;;;;;;;11.30;3.73;;;;;;;12.02;83.71;98491.03;5050524;57;1136821;-78
2024/03/27 08:27:45;;;;;;;6.97;3.80;;;;;;;12.09;85.43;98485.33;5065798;57;1138873;-77
2024/03/27 08:32:51;;;;;;;11.07;4.47;;;;;;;12.20;86.77;98474.83;5041863;57;1136613;-79
2024/03/27 08:37:57;;;;;;;6.33;3.80;;;;;;;12.37;85.24;98461.75;5054638;57;1139131;-78
2024/03/27 08:43:03;;;;;;;5.47;3.45;;;;;;;12.42;84.64;98454.56;5046225;57;1136722;-80
2024/03/27 08:48:08;;;;;;;6.60;4.00;;;;;;;12.60;87.89;98462.49;5076360;57;1136524;-79
2024/03/27 08:53:15;;;;;;;7.17;3.93;;;;;;;12.84;83.02;98462.71;5006141;57;1136722;-79
2024/03/27 08:58:20;;;;;;;7.03;4.30;;;;;;;13.01;83.20;98438.14;4968522;57;1136745;-79
2024/03/27 09:03:26;;;;;;;22.77;6.70;;;;;;;13.17;82.79;98448.58;5062929;57;1136597;-77
2024/03/27 09:08:32;;;;;;;11.03;3.08;;;;;;;13.26;81.61;98458.09;5023265;57;1138639;-78
2024/03/27 09:13:41;;;;;;;9.55;3.72;;;;;;;13.48;83.27;98455.46;5048586;57;1138821;-76
2024/03/27 09:18:46;;;;;;;5.67;3.80;;;;;;;13.65;80.72;98464.84;5069096;57;1136566;-77
2024/03/27 09:23:52;;;;;;;8.97;4.07;;;;;;;13.80;81.11;98452.83;5049265;57;1136635;-77
2024/03/27 09:28:58;;;;;;;11.03;4.93;;;;;;;14.08;79.71;98450.53;5049079;57;1136995;-79
2024/03/27 09:34:04;;;;;;;9.73;3.70;;;;;;;14.38;81.96;98451.68;5048962;57;1138596;-79
2024/03/27 09:39:09;;;;;;;6.43;3.30;;;;;;;14.69;77.98;98453.97;5048735;57;1136939;-78
2024/03/27 09:44:17;;;;;;;5.77;3.00;;;;;;;14.92;80.60;98456.36;4994286;57;1136607;-78
2024/03/27 09:49:23;;;;;;;5.93;2.83;;;;;;;15.04;79.61;98450.28;4968552;57;1136969;-78
2024/03/27 09:54:29;;;;;;;6.58;2.85;;;;;;;15.05;72.52;98448.44;4997559;57;1136541;-80
2024/03/27 09:59:35;;;;;;;3.98;2.70;;;;;;;15.16;76.47;98451.86;4938248;58;1136723;-80
2024/03/27 10:04:42;;;;;;;6.57;3.37;;;;;;;15.30;75.77;98460.72;4825484;58;1136603;-78
2024/03/27 10:09:47;;;;;;;5.77;3.40;;;;;;;15.44;74.23;98463.22;4962372;58;1136784;-81
2024/03/27 10:14:53;;;;;;;4.67;3.33;;;;;;;15.62;75.06;98457.37;4787992;60;1136885;-79
2024/03/27 10:20:00;;;;;;;6.03;3.80;;;;;;;15.65;73.61;98456.97;4876292;58;1136721;-79
2024/03/27 10:25:08;;;;;;;12.05;4.65;;;;;;;15.70;72.82;98446.53;4949158;58;1136756;-78
2024/03/27 10:30:14;;;;;;;8.63;4.33;;;;;;;15.80;75.16;98448.80;4981471;58;1138671;-78
2024/03/27 10:35:21;;;;;;;11.23;3.40;;;;;;;15.95;74.91;98460.61;4952595;58;1136662;-79
2024/03/27 10:40:27;;;;;;;6.87;3.87;;;;;;;16.02;72.15;98457.45;4941901;57;1138877;-80
2024/03/27 10:45:36;;;;;;;6.67;3.83;;;;;;;15.97;70.06;98450.05;4821299;59;1136491;-80
2024/03/27 10:50:44;;;;;;;7.80;3.73;;;;;;;15.95;71.43;98460.09;4914286;58;1136368;-79
2024/03/27 10:55:50;;;;;;;7.03;3.50;;;;;;;15.93;72.86;98454.66;4962717;57;1136835;-79
2024/03/27 11:00:58;;;;;;;9.03;3.43;;;;;;;16.01;71.54;98441.14;5011456;57;1136520;-78
2024/03/27 11:06:03;;;;;;;19.33;4.80;;;;;;;16.00;73.95;98443.50;5025409;57;1136375;-81
2024/03/27 11:11:15;;;;;;;14.23;4.40;;;;;;;16.10;72.94;98441.23;4982228;57;1138769;-79
2024/03/27 11:16:22;;;;;;;7.27;4.00;;;;;;;16.25;73.49;98424.52;4974313;57;1253811;-84
2024/03/27 11:21:30;;;;;;;10.05;3.25;;;;;;;16.35;73.80;98422.75;4976361;57;1136454;-80
2024/03/27 11:26:35;;;;;;;9.60;3.03;;;;;;;16.52;73.87;98415.95;4975922;57;1138698;-82
2024/03/27 11:31:46;;;;;;;7.20;3.37;;;;;;;16.66;73.35;98422.93;5010279;57;1136619;-80
2024/03/27 11:36:52;;;;;;;6.40;3.37;;;;;;;16.78;71.39;98416.45;5048286;57;1136245;-80
2024/03/27 11:41:58;;;;;;;10.40;4.80;;;;;;;16.77;71.91;98414.81;5012891;57;1136459;-81
2024/03/27 11:47:04;;;;;;;6.13;3.37;;;;;;;16.73;70.82;98421.59;5004416;57;1138788;-79
2024/03/27 11:52:11;;;;;;;9.43;4.60;;;;;;;16.70;71.40;98419.34;5027832;57;1136549;-78
2024/03/27 11:57:16;;;;;;;10.33;4.53;;;;;;;16.72;72.86;98407.42;5035524;57;1136789;-79
2024/03/27 12:02:22;;;;;;;11.10;5.33;;;;;;;16.80;72.12;98407.73;5057455;57;1139236;-79
2024/03/27 12:07:28;;;;;;;5.25;3.52;;;;;;;16.77;74.78;98403.62;5074288;57;1138866;-81
2024/03/27 12:12:34;;;;;;;9.55;3.65;;;;;;;16.83;74.72;98400.09;4957559;58;1136742;-80
2024/03/27 12:17:40;;;;;;;11.17;3.60;;;;;;;16.93;77.35;98402.34;5032773;56;1136532;-82
2024/03/27 12:22:46;;;;;;;8.93;3.27;;;;;;;17.19;76.38;98392.87;4902811;58;1138791;-81
2024/03/27 12:27:52;;;;;;;6.57;3.50;;;;;;;17.34;75.48;98380.56;5002582;57;1136535;-82
2024/03/27 12:32:58;;;;;;;10.47;3.13;;;;;;;17.42;74.00;98378.95;5011779;56;1136461;-85
2024/03/27 12:38:04;;;;;;;9.27;3.47;;;;;;;17.42;74.59;98388.83;4982857;57;1138541;-83
2024/03/27 12:43:10;;;;;;;6.47;3.77;;;;;;;17.46;73.90;98377.50;4996695;57;1136475;-82
2024/03/27 12:48:23;;;;;;;8.60;3.25;;;;;;;17.54;75.08;98382.60;4973692;57;1136535;-84
2024/03/27 12:53:29;;;;;;;8.08;3.85;;;;;;;17.69;74.59;98376.98;5020962;57;1136994;-81
2024/03/27 12:58:35;;;;;;;12.10;4.43;;;;;;;17.85;74.16;98373.78;5078444;57;1136763;-82
2024/03/27 13:03:41;;;;;;;9.10;3.83;;;;;;;17.84;72.20;98382.83;5057645;57;1138783;-75
2024/03/27 13:08:46;;;;;;;11.73;3.60;;;;;;;17.83;71.00;98374.51;5045472;57;1137138;-75
2024/03/27 13:13:52;;;;;;;8.47;3.57;;;;;;;17.86;70.54;98383.95;5069113;57;1138551;-77
2024/03/27 13:18:58;;;;;;;10.27;4.47;;;;;;;17.84;72.60;98372.66;5058068;57;1136553;-77
2024/03/27 13:24:04;;;;;;;11.87;4.17;;;;;;;17.97;74.35;98366.38;5058223;57;1138838;-76
2024/03/27 13:29:09;;;;;;;6.27;3.77;;;;;;;17.99;73.00;98358.95;5051319;57;1138436;-77
2024/03/27 13:34:15;;;;;;;9.33;3.80;;;;;;;17.89;72.73;98342.86;5072886;57;1136257;-77
2024/03/27 13:39:22;;;;;;;10.38;5.40;;;;;;;17.94;74.43;98358.27;5067031;57;1136679;-77
2024/03/27 13:44:29;;;;;;;11.35;4.30;;;;;;;17.96;74.54;98344.67;4978751;57;1139268;-77
2024/03/27 13:49:34;;;;;;;16.87;3.95;;;;;;;18.02;76.57;98341.95;5018035;57;1138893;-76
2024/03/27 13:54:41;;;;;;;17.45;4.55;;;;;;;18.07;76.29;98332.73;5008598;57;1138628;-76
2024/03/27 13:59:47;;;;;;;11.07;4.20;;;;;;;18.01;76.40;98320.25;5004552;57;1138661;-75
2024/03/27 14:04:53;;;;;;;6.67;3.10;;;;;;;18.00;78.44;98322.63;5063322;56;1139060;-77
2024/03/27 14:09:59;;;;;;;10.67;5.37;;;;;;;17.93;78.48;98307.97;4989878;57;1136529;-76
2024/03/27 14:15:10;;;;;;;24.23;6.43;;;;;;;17.90;80.05;98300.38;4967597;58;1138496;-77
2024/03/27 14:20:12;;;;;;;13.50;3.80;;;;;;;17.91;81.58;98295.33;4987039;58;1138689;-75
2024/03/27 14:25:18;;;;;;;12.80;4.97;;;;;;;17.94;80.61;98294.08;4967151;58;1138497;-75
2024/03/27 14:30:24;;;;;;;13.23;2.87;;;;;;;17.94;79.47;98290.06;4967936;58;1139233;-77
2024/03/27 14:35:29;;;;;;;11.03;2.95;;;;;;;17.95;78.84;98286.87;4987415;58;1138673;-76
2024/03/27 14:40:35;;;;;;;7.12;2.92;;;;;;;17.89;79.44;98273.33;4967639;58;1138803;-76
2024/03/27 14:45:41;;;;;;;9.18;3.20;;;;;;;17.90;79.44;98269.63;4967548;57;1136669;-75
2024/03/27 14:50:46;;;;;;;5.90;3.10;;;;;;;17.91;81.51;98265.09;4972423;57;1136691;-74
2024/03/27 14:55:52;;;;;;;7.50;2.53;;;;;;;17.91;81.52;98268.59;4967817;58;1136531;-76
2024/03/27 15:00:58;;;;;;;4.63;2.43;;;;;;;17.88;82.46;98261.00;4967245;58;1137013;-76
2024/03/27 15:06:03;;;;;;;9.30;3.27;;;;;;;17.88;82.98;98247.63;4990151;57;1136792;-77
2024/03/27 15:11:09;;;;;;;15.83;3.63;;;;;;;17.94;84.56;98239.25;5038454;57;1136593;-74
2024/03/27 15:16:15;;;;;;;11.00;2.73;;;;;;;17.97;83.85;98240.66;5018274;57;1138542;-76
2024/03/27 15:21:21;;;;;;;8.43;3.20;;;;;;;18.01;84.05;98233.33;5017798;57;1138433;-75
2024/03/27 15:26:27;;;;;;;12.20;5.50;;;;;;;18.03;83.76;98235.23;5039426;57;1136633;-76
2024/03/27 15:31:33;;;;;;;9.83;5.33;;;;;;;18.05;85.35;98226.47;5019120;57;1148320;-76
2024/03/27 15:36:39;;;;;;;9.03;5.60;;;;;;;18.05;85.21;98230.48;5019653;57;1136663;-75
2024/03/27 15:41:47;;;;;;;14.00;7.23;;;;;;;18.05;85.84;98221.64;5034169;57;1136513;-79
2024/03/27 15:46:53;;;;;;;11.97;7.50;;;;;;;18.03;86.25;98227.20;5019210;57;1138390;-74
2024/03/27 15:51:59;;;;;;;93.77;54.37;;;;;;;18.02;87.25;98236.30;4998936;57;1138718;-74
2024/03/27 15:57:05;;;;;;;37.35;21.27;;;;;;;18.00;87.98;98241.56;4981038;57;1140958;-74
2024/03/27 16:02:10;;;;;;;11.53;6.33;;;;;;;17.97;88.17;98233.46;5038030;57;1140755;-74
2024/03/27 16:07:16;;;;;;;7.23;3.87;;;;;;;17.94;89.07;98235.23;5003911;57;1138739;-74
2024/03/27 16:12:22;;;;;;;7.87;3.03;;;;;;;17.88;88.33;98231.58;5001142;57;1136339;-74
2024/03/27 16:17:27;;;;;;;11.33;4.77;;;;;;;17.84;89.18;98225.06;5013246;57;1136808;-74
2024/03/27 16:22:34;;;;;;;17.67;6.17;;;;;;;17.81;89.59;98220.15;4939243;58;1138349;-74
2024/03/27 16:27:40;;;;;;;13.60;5.70;;;;;;;17.77;90.42;98218.13;4938723;58;1138741;-74
2024/03/27 16:32:46;;;;;;;12.80;4.33;;;;;;;17.72;90.92;98228.69;4957676;58;1139299;-75
2024/03/27 16:37:51;;;;;;;18.07;10.13;;;;;;;17.68;91.08;98223.48;4934587;58;1138752;-74
2024/03/27 16:42:57;;;;;;;11.30;6.53;;;;;;;17.63;91.34;98225.95;4938381;58;1140614;-74
2024/03/27 16:48:04;;;;;;;12.42;6.12;;;;;;;17.56;91.38;98221.50;4938704;58;1138930;-74
2024/03/27 16:53:10;;;;;;;13.33;5.07;;;;;;;17.51;91.31;98224.52;4998391;57;1138578;-73
2024/03/27 16:58:15;;;;;;;4.37;2.97;;;;;;;17.45;90.77;98224.05;5018997;57;1138606;-74
2024/03/27 17:03:21;;;;;;;11.23;5.73;;;;;;;17.38;89.82;98228.13;4980934;57;1136461;-75
2024/03/27 17:08:27;;;;;;;17.73;8.90;;;;;;;17.32;90.71;98228.98;5045115;57;1138786;-75
2024/03/27 17:13:32;;;;;;;14.40;3.40;;;;;;;17.25;91.05;98222.90;5069702;57;1138433;-74
2024/03/27 17:18:38;;;;;;;16.60;9.03;;;;;;;17.18;91.32;98222.12;5082897;56;1138546;-75
2024/03/27 17:23:44;;;;;;;6.75;3.40;;;;;;;17.14;92.80;98223.06;5097214;56;1138643;-75
2024/03/27 17:28:50;;;;;;;60.40;42.03;;;;;;;17.07;93.18;98226.31;4908429;58;1136811;-74
2024/03/27 17:33:56;;;;;;;37.63;23.17;;;;;;;17.02;93.92;98245.34;4944921;58;1140813;-74
2024/03/27 17:39:01;;;;;;;17.07;8.37;;;;;;;16.94;94.41;98251.78;4906951;58;1141052;-77
2024/03/27 17:44:07;;;;;;;11.77;5.53;;;;;;;16.85;95.34;98251.70;4985291;58;1138490;-75
2024/03/27 17:49:13;;;;;;;68.10;34.23;;;;;;;16.76;96.02;98253.83;5088366;56;1138951;-76
2024/03/27 17:54:18;;;;;;;20.25;10.23;;;;;;;16.66;96.85;98249.95;5042902;57;1140868;-75
2024/03/27 17:59:24;;;;;;;23.00;10.37;;;;;;;16.57;97.69;98252.55;5038924;57;1140613;-75
2024/03/27 18:04:30;;;;;;;26.33;8.90;;;;;;;16.45;98.49;98249.73;4998999;58;1140621;-74
2024/03/27 18:09:36;;;;;;;19.98;6.35;;;;;;;16.37;99.39;98252.62;4999835;57;1138804;-74
2024/03/27 18:14:41;;;;;;;14.98;6.45;;;;;;;16.30;99.95;98255.33;5022197;57;1138635;-76
2024/03/27 18:19:47;;;;;;;16.80;7.03;;;;;;;16.22;100.00;98252.88;4969842;57;1138645;-75
2024/03/27 18:24:53;;;;;;;26.10;8.43;;;;;;;16.13;100.00;98255.48;4881623;58;1140792;-76
2024/03/27 18:30:00;;;;;;;20.50;9.00;;;;;;;16.01;100.00;98253.98;4938891;57;1140756;-77
2024/03/27 18:35:07;;;;;;;20.43;10.90;;;;;;;15.98;100.00;98262.39;4933296;58;1141013;-76
2024/03/27 18:40:13;;;;;;;25.10;8.93;;;;;;;15.94;100.00;98264.34;5029290;56;1142936;-77
2024/03/27 18:45:19;;;;;;;21.10;7.37;;;;;;;15.87;100.00;98267.55;5039564;56;1140828;-81
2024/03/27 18:50:25;;;;;;;25.90;11.27;;;;;;;15.82;100.00;98253.51;5036370;56;1140586;-83
2024/03/27 18:55:34;;;;;;;17.60;7.17;;;;;;;15.81;100.00;98255.34;5032498;56;1142669;-79
2024/03/27 19:00:41;;;;;;;20.53;8.30;;;;;;;15.79;100.00;98245.92;5044592;56;1140870;-81
2024/03/27 19:05:51;;;;;;;21.37;7.50;;;;;;;15.76;100.00;98247.66;5057984;56;1140626;-76
2024/03/27 19:10:59;;;;;;;28.60;13.63;;;;;;;15.74;100.00;98243.05;5029153;56;1140502;-78
2024/03/27 19:16:06;;;;;;;38.54;15.44;;;;;;;15.66;100.00;98252.09;5001699;57;1143071;-77
2024/03/27 19:21:11;;;;;;;32.80;14.63;;;;;;;15.60;100.00;98245.42;4892268;58;1143267;-77
2024/03/27 19:26:17;;;;;;;22.40;10.60;;;;;;;15.55;100.00;98250.54;4865870;58;1142632;-79
2024/03/27 19:31:23;;;;;;;18.70;8.80;;;;;;;15.47;100.00;98237.72;5002160;57;1142990;-82
2024/03/27 19:36:29;;;;;;;19.33;9.97;;;;;;;15.44;100.00;98239.45;5046742;57;1140613;-76
2024/03/27 19:41:37;;;;;;;17.05;8.85;;;;;;;15.41;100.00;98239.08;4864054;59;1140940;-78
2024/03/27 19:46:42;;;;;;;16.00;8.07;;;;;;;15.34;100.00;98240.39;5016154;57;1140452;-74
2024/03/27 19:51:48;;;;;;;25.13;9.67;;;;;;;15.31;100.00;98243.97;4984697;57;1141142;-75
2024/03/27 19:56:53;;;;;;;24.17;12.07;;;;;;;15.25;100.00;98240.30;5006589;57;1140912;-76
2024/03/27 20:01:59;;;;;;;27.60;9.63;;;;;;;15.19;100.00;98232.30;4947318;57;1142673;-78
2024/03/27 20:07:05;;;;;;;15.33;8.87;;;;;;;15.13;100.00;98225.93;4946133;58;1141609;-78
2024/03/27 20:12:10;;;;;;;15.53;7.37;;;;;;;15.06;100.00;98220.62;4963350;58;1141014;-77
2024/03/27 20:17:16;;;;;;;15.30;8.03;;;;;;;15.00;100.00;98217.94;4989301;57;1140868;-81
2024/03/27 20:22:22;;;;;;;20.10;9.60;;;;;;;14.93;100.00;98205.15;5012848;57;1140970;-77
2024/03/27 20:27:29;;;;;;;18.67;8.83;;;;;;;14.88;100.00;98203.09;5036018;57;1140697;-77
2024/03/27 20:32:36;;;;;;;22.02;11.97;;;;;;;14.81;100.00;98192.14;5024055;56;1140748;-82
2024/03/27 20:37:42;;;;;;;33.27;16.03;;;;;;;14.77;100.00;98193.05;5087587;56;1142868;-78
2024/03/27 20:42:50;;;;;;;29.43;15.23;;;;;;;14.69;100.00;98187.90;5115216;56;1142920;-78
2024/03/27 20:47:56;;;;;;;14.23;7.10;;;;;;;14.62;100.00;98193.73;5083234;56;1142793;-78
2024/03/27 20:53:03;;;;;;;23.83;8.77;;;;;;;14.51;100.00;98184.52;5064101;56;1140592;-78
2024/03/27 20:58:10;;;;;;;20.57;9.05;;;;;;;14.46;100.00;98183.46;5053604;56;1140896;-77
2024/03/27 21:03:16;;;;;;;27.70;14.38;;;;;;;14.40;100.00;98185.08;5032046;57;1140867;-80
2024/03/27 21:08:22;;;;;;;16.67;8.63;;;;;;;14.35;100.00;98192.31;5011798;57;1142840;-76
2024/03/27 21:13:28;;;;;;;21.27;10.30;;;;;;;14.30;100.00;98189.92;5103525;56;1140724;-77
2024/03/27 21:18:34;;;;;;;23.73;10.05;;;;;;;14.25;100.00;98189.19;5108376;56;1142999;-80
2024/03/27 21:23:40;;;;;;;26.07;9.63;;;;;;;14.23;100.00;98187.74;5096899;56;1142849;-78
2024/03/27 21:28:46;;;;;;;29.25;10.30;;;;;;;14.19;100.00;98180.70;4984636;58;1140593;-80
2024/03/27 21:33:51;;;;;;;26.47;11.60;;;;;;;14.18;100.00;98171.59;5005640;58;1142868;-75
2024/03/27 21:38:57;;;;;;;24.90;10.27;;;;;;;14.18;100.00;98167.60;4986215;58;1142823;-76
2024/03/27 21:44:03;;;;;;;22.90;10.67;;;;;;;14.16;100.00;98168.30;4913182;58;1142986;-82
2024/03/27 21:49:08;;;;;;;20.72;9.60;;;;;;;14.12;100.00;98163.07;4938961;57;1143092;-80
2024/03/27 21:54:14;;;;;;;22.63;9.83;;;;;;;14.01;100.00;98159.97;5004060;57;1140594;-79
2024/03/27 21:59:21;;;;;;;25.70;12.40;;;;;;;13.91;100.00;98160.83;4978781;57;1140542;-79
2024/03/27 22:04:26;;;;;;;31.63;13.57;;;;;;;13.83;100.00;98149.05;4980094;57;1142980;-77
2024/03/27 22:09:32;;;;;;;20.73;10.33;;;;;;;13.78;100.00;98146.16;4873753;59;1152083;-76
2024/03/27 22:14:38;;;;;;;19.47;7.80;;;;;;;13.76;100.00;98152.68;5101747;56;1142883;-80
2024/03/27 22:19:44;;;;;;;22.87;9.40;;;;;;;13.78;100.00;98141.35;5108490;56;1141107;-78
2024/03/27 22:24:50;;;;;;;17.93;8.10;;;;;;;13.78;100.00;98136.04;5043250;56;1140648;-77
2024/03/27 22:29:55;;;;;;;13.50;7.43;;;;;;;13.80;100.00;98132.68;4982131;57;1140648;-77
2024/03/27 22:35:01;;;;;;;26.33;7.97;;;;;;;13.79;100.00;98125.22;4830187;59;1140961;-80
2024/03/27 22:40:08;;;;;;;18.60;8.53;;;;;;;13.77;100.00;98124.59;4810372;58;1141055;-81
2024/03/27 22:45:14;;;;;;;24.67;9.20;;;;;;;13.70;100.00;98125.09;4848487;59;1140745;-75
2024/03/27 22:50:20;;;;;;;26.70;12.90;;;;;;;13.61;100.00;98119.61;4829614;59;1140984;-83
2024/03/27 22:55:25;;;;;;;19.83;9.53;;;;;;;13.53;100.00;98115.80;5019304;57;1143028;-80
2024/03/27 23:00:33;;;;;;;17.35;9.75;;;;;;;13.50;100.00;98111.70;4964567;57;1140592;-79
2024/03/27 23:05:38;;;;;;;19.12;7.80;;;;;;;13.46;100.00;98113.09;4948938;57;1140735;-80
2024/03/27 23:10:46;;;;;;;19.83;9.67;;;;;;;13.42;100.00;98111.05;4938745;57;1140670;-79